• Join FlightAware (Why Join?)
  • Login
  • US Flag 
12:09AM EDT


 

Airport Tracker/Info


-or-


 

Live Flight TrackerFlight Track Log ✈ SWA1586 ✈ 18-Jun-2014 ✈ KONT - KLAS

Flight Track Log - Related Links

Times and Time Zones

All times are in EDT time to prevent confusion due to time zone crossing. See the SWA1586 flight status page for this flight to view local times or setup timezone preferences in your user account.

Time Position Orientation Groundspeed Altitude Reporting Facility
EDT Latitude Longitude Course Direction KTS MPH feet Rate Location/Type
08:59AM 34.0531 -117.5750 44° Northeast 161 185 29,000  Level Los Angeles Center
09:00AM 34.0172 -117.5883 197° South 240 276 3,700 -11,100 Descending Los Angeles Center
09:01AM 34.0381 -117.6614 289° West 242 278 6,700 2,580 Climbing Los Angeles Center
09:02AM 34.0628 -117.7389 291° West 242 278 9,000 2,280 Climbing Los Angeles Center
09:03AM 34.0961 -117.8092 300° West 244 281 11,300 2,700 Climbing Los Angeles Center
09:04AM 34.4067 -117.1896 44° Northeast  Level Estimated
09:04AM 34.1681 -117.7908 12° North 286 329 14,600  Level Los Angeles Center
09:05AM 34.2197 -117.7131 51° Northeast 298 343 17,800 2,040 Climbing Los Angeles Center
09:06AM 34.2794 -117.6222 51° Northeast 348 400 18,800 1,620 Climbing Los Angeles Center
09:07AM 34.3492 -117.5156 52° Northeast 399 459 21,200 2,400 Climbing Los Angeles Center
09:08AM 34.4106 -117.4228 51° Northeast 411 473 23,700 2,700 Climbing Los Angeles Center
09:09AM 34.4828 -117.3136 51° Northeast 417 480 26,700 2,580 Climbing Los Angeles Center
09:10AM 34.5686 -117.1817 52° Northeast 417 480 29,000 1,140 Climbing Los Angeles Center
09:11AM 34.6408 -117.0700 52° Northeast 419 482 29,000  Level Los Angeles Center
09:12AM 34.7144 -116.9589 51° Northeast 421 484 29,000  Level Los Angeles Center
09:13AM 34.7858 -116.8472 52° Northeast 421 484 29,000  Level Los Angeles Center
09:14AM 34.8586 -116.7353 52° Northeast 421 484 29,000 -360 Level Los Angeles Center
09:15AM 34.9306 -116.6228 52° Northeast 421 484 28,300 -1,380 Descending Los Angeles Center
09:16AM 35.0067 -116.5183 48° Northeast 418 481 26,300 -2,040 Descending Los Angeles Center
09:17AM 35.0850 -116.4228 45° Northeast 406 467 24,300 -1,200 Descending Los Angeles Center
09:18AM 35.1606 -116.3264 46° Northeast 400 460 24,000 -180 Descending Los Angeles Center
09:19AM 35.2406 -116.2297 45° Northeast 400 460 24,000 -960 Level Los Angeles Center
09:20AM 35.3147 -116.1328 47° Northeast 398 458 22,100 -2,100 Descending Los Angeles Center
09:21AM 35.4056 -116.0181 46° Northeast 396 456 19,800 -2,220 Descending Los Angeles Center
09:22AM 35.4831 -115.9253 44° Northeast 394 453 17,700 -1,920 Descending Los Angeles Center
09:23AM 35.5539 -115.8317 47° Northeast 385 443 15,900 -1,920 Descending Los Angeles Center
09:23AM 35.5889 -115.7925 42° Northeast 380 437 15,000 -1,920 Descending Los Angeles Center
09:24AM 35.6253 -115.7428 48° Northeast 376 433 14,000 -2,100 Descending Los Angeles Center
09:24AM 35.6536 -115.7111 42° Northeast 357 411 13,100 -2,640 Descending Los Angeles Center
09:25AM 35.6908 -115.6522 52° Northeast 367 422 11,300 -2,760 Descending Los Angeles Center
09:25AM 35.7003 -115.6275 65° Northeast 361 415 10,600 -1,380 Descending Los Angeles Center
09:26AM 35.7364 -115.5319 65° Northeast 367 422 9,900 -720 Descending Los Angeles Center
09:26AM 35.7478 -115.5064 61° Northeast 315 362 9,800 -1,200 Descending Los Angeles Center
09:27AM 35.7747 -115.4461 61° Northeast 293 337 8,700 -1,620 Descending Los Angeles Center
09:27AM 35.7908 -115.4261 45° Northeast 275 316 8,200 -1,140 Descending Los Angeles Center
09:28AM 35.8311 -115.3700 48° Northeast 282 325 7,600 -1,080 Descending Los Angeles Center
09:28AM 35.8497 -115.3486 43° Northeast 262 302 7,000 -1,380 Descending Los Angeles Center
09:29AM 35.8825 -115.3125 42° Northeast 256 295 6,200 -1,320 Descending Los Angeles Center
09:29AM 35.9006 -115.2950 38° Northeast 237 273 5,700 -900 Descending Los Angeles Center
09:30AM 35.9311 -115.2608 42° Northeast 238 274 5,300 -600 Descending Los Angeles Center
09:30AM 35.9481 -115.2447 38° Northeast 223 257 5,100 -540 Descending Los Angeles Center
09:31AM 35.9761 -115.2264 28° Northeast 192 221 4,800 -780 Descending Los Angeles Center
09:31AM 35.9861 -115.2217 21° North 152 175 4,400 -1,320 Descending Los Angeles Center
09:32AM 36.0158 -115.2033 27° Northeast 154 177 3,500 -900 Descending Los Angeles Center
09:33AM 36.0481 -115.1853 24° Northeast 131 151 2,800 -720 Descending Los Angeles Center
09:33AM 36.0556 -115.1831 13° North 125 144 2,600 -840 Descending Los Angeles Center
09:34AM 36.0808 -115.1656 29° Northeast 129 148 2,000 -780 Descending Los Angeles Center
09:36AM 36.0801 -115.1523 94° East  Level Estimated